Flugwetter

METAR EDDW
2022/12/04 18:50 EDDW 041850Z AUTO 05010KT 9000 FEW010 OVC020 03/01 Q1020 BECMG BKN010
TAF EDDW
2022/12/04 18:59 TAF AMD EDDW 041852Z 0418/0518 04009KT 8000 OVC020 BECMG 0418/0420 OVC012 BECMG 0420/0422 BKN006 TEMPO 0500/0518 3500 DZ BKN003
METAR EDDH
2022/12/04 18:50 EDDH 041850Z AUTO 08010KT 050V110 9999 BKN012 OVC019 04/02 Q1021 BECMG BKN009
TAF EDDH
2022/12/04 18:57 TAF AMD EDDH 041850Z 0418/0524 05008KT 7000 BKN012 BECMG 0418/0420 OVC007 TEMPO 0502/0524 3500 DZ BKN003 BECMG 0518/0520 35006KT
METAR VRMM
2022/12/04 19:00 VRMM 041900Z 36004KT 9999 FEW017 BKN110 27/24 Q1011 NOSIG
TAF VRMM
2022/12/04 18:45 TAF VRMM 041700Z 0418/0524 36005KT 9999 FEW017TCU BKN110 TEMPO 0418/0424 5000 TSRA FEW017CB

Quelle:

Bereitgestellt von den Servern der NOAA tgftp.nws.noaa.gov
Alle Angaben ohne Gewähr